sensor_id;sensor_type;location;lat;lon;timestamp;P1;durP1;ratioP1;P2;durP2;ratioP2
26062;SDS011;13837;48.562;12.108;2023-11-22T00:00:22;31.42;;;29.92;;
26062;SDS011;13837;48.562;12.108;2023-11-22T00:02:48;30.65;;;29.23;;
26062;SDS011;13837;48.562;12.108;2023-11-22T00:05:15;32.47;;;30.90;;
26062;SDS011;13837;48.562;12.108;2023-11-22T00:07:41;33.00;;;31.25;;
26062;SDS011;13837;48.562;12.108;2023-11-22T00:10:08;31.77;;;30.08;;
26062;SDS011;13837;48.562;12.108;2023-11-22T00:12:34;33.30;;;31.63;;
26062;SDS011;13837;48.562;12.108;2023-11-22T00:15:06;32.70;;;31.13;;
26062;SDS011;13837;48.562;12.108;2023-11-22T00:17:34;32.30;;;30.70;;
26062;SDS011;13837;48.562;12.108;2023-11-22T00:20:00;31.20;;;29.80;;
26062;SDS011;13837;48.562;12.108;2023-11-22T00:22:30;32.75;;;31.15;;
26062;SDS011;13837;48.562;12.108;2023-11-22T00:24:58;31.60;;;30.20;;
26062;SDS011;13837;48.562;12.108;2023-11-22T00:27:24;31.92;;;30.42;;
26062;SDS011;13837;48.562;12.108;2023-11-22T00:29:50;30.77;;;29.38;;
26062;SDS011;13837;48.562;12.108;2023-11-22T00:32:17;32.47;;;30.77;;
26062;SDS011;13837;48.562;12.108;2023-11-22T00:34:44;31.08;;;29.58;;
26062;SDS011;13837;48.562;12.108;2023-11-22T00:37:10;29.70;;;28.30;;
26062;SDS011;13837;48.562;12.108;2023-11-22T00:39:36;32.10;;;30.60;;
26062;SDS011;13837;48.562;12.108;2023-11-22T00:42:02;32.40;;;30.80;;
26062;SDS011;13837;48.562;12.108;2023-11-22T00:44:29;32.03;;;30.48;;
26062;SDS011;13837;48.562;12.108;2023-11-22T00:46:55;32.70;;;31.10;;
26062;SDS011;13837;48.562;12.108;2023-11-22T00:49:22;33.75;;;32.00;;
26062;SDS011;13837;48.562;12.108;2023-11-22T00:51:48;34.97;;;33.20;;
26062;SDS011;13837;48.562;12.108;2023-11-22T00:54:16;33.25;;;31.55;;
26062;SDS011;13837;48.562;12.108;2023-11-22T00:56:43;34.88;;;33.00;;
26062;SDS011;13837;48.562;12.108;2023-11-22T00:59:10;33.58;;;31.80;;
26062;SDS011;13837;48.562;12.108;2023-11-22T01:01:36;33.92;;;32.20;;
26062;SDS011;13837;48.562;12.108;2023-11-22T01:04:02;33.10;;;31.40;;
26062;SDS011;13837;48.562;12.108;2023-11-22T01:06:29;33.45;;;31.65;;
26062;SDS011;13837;48.562;12.108;2023-11-22T01:08:57;34.03;;;32.22;;
26062;SDS011;13837;48.562;12.108;2023-11-22T01:11:23;33.50;;;31.80;;
26062;SDS011;13837;48.562;12.108;2023-11-22T01:13:49;34.88;;;32.97;;
26062;SDS011;13837;48.562;12.108;2023-11-22T01:16:15;33.80;;;32.00;;
26062;SDS011;13837;48.562;12.108;2023-11-22T01:18:42;34.30;;;32.30;;
26062;SDS011;13837;48.562;12.108;2023-11-22T01:21:11;34.63;;;32.73;;
26062;SDS011;13837;48.562;12.108;2023-11-22T01:23:37;34.95;;;33.15;;
26062;SDS011;13837;48.562;12.108;2023-11-22T01:26:03;34.20;;;32.45;;
26062;SDS011;13837;48.562;12.108;2023-11-22T01:28:30;33.55;;;31.80;;
26062;SDS011;13837;48.562;12.108;2023-11-22T01:33:27;34.08;;;32.25;;
26062;SDS011;13837;48.562;12.108;2023-11-22T01:35:54;34.38;;;32.45;;
26062;SDS011;13837;48.562;12.108;2023-11-22T01:38:21;34.97;;;33.10;;
26062;SDS011;13837;48.562;12.108;2023-11-22T01:40:48;34.67;;;32.72;;
26062;SDS011;13837;48.562;12.108;2023-11-22T01:43:19;35.17;;;33.33;;
26062;SDS011;13837;48.562;12.108;2023-11-22T01:45:47;34.33;;;32.42;;
26062;SDS011;13837;48.562;12.108;2023-11-22T01:48:13;34.42;;;32.70;;
26062;SDS011;13837;48.562;12.108;2023-11-22T01:50:40;33.58;;;31.80;;
26062;SDS011;13837;48.562;12.108;2023-11-22T01:53:07;34.80;;;32.90;;
26062;SDS011;13837;48.562;12.108;2023-11-22T01:55:33;34.35;;;32.55;;
26062;SDS011;13837;48.562;12.108;2023-11-22T01:58:00;33.95;;;32.20;;
26062;SDS011;13837;48.562;12.108;2023-11-22T02:00:27;34.45;;;32.65;;
26062;SDS011;13837;48.562;12.108;2023-11-22T02:02:57;33.97;;;32.20;;
26062;SDS011;13837;48.562;12.108;2023-11-22T02:05:25;34.20;;;32.38;;
26062;SDS011;13837;48.562;12.108;2023-11-22T02:07:51;33.60;;;31.83;;
26062;SDS011;13837;48.562;12.108;2023-11-22T02:10:18;34.25;;;32.42;;
26062;SDS011;13837;48.562;12.108;2023-11-22T02:12:44;33.85;;;31.85;;
26062;SDS011;13837;48.562;12.108;2023-11-22T02:15:10;35.30;;;33.30;;
26062;SDS011;13837;48.562;12.108;2023-11-22T02:17:36;34.38;;;32.58;;
26062;SDS011;13837;48.562;12.108;2023-11-22T02:20:02;34.55;;;32.75;;
26062;SDS011;13837;48.562;12.108;2023-11-22T02:22:31;34.63;;;32.83;;
26062;SDS011;13837;48.562;12.108;2023-11-22T02:24:58;35.17;;;33.38;;
26062;SDS011;13837;48.562;12.108;2023-11-22T02:27:25;34.63;;;32.88;;
26062;SDS011;13837;48.562;12.108;2023-11-22T02:29:51;33.75;;;31.95;;
26062;SDS011;13837;48.562;12.108;2023-11-22T02:32:17;34.03;;;32.22;;
26062;SDS011;13837;48.562;12.108;2023-11-22T02:34:43;33.80;;;31.90;;
26062;SDS011;13837;48.562;12.108;2023-11-22T02:37:11;33.17;;;31.38;;
26062;SDS011;13837;48.562;12.108;2023-11-22T02:42:23;34.35;;;32.22;;
26062;SDS011;13837;48.562;12.108;2023-11-22T02:44:49;34.33;;;31.95;;
26062;SDS011;13837;48.562;12.108;2023-11-22T02:47:15;34.50;;;32.60;;
26062;SDS011;13837;48.562;12.108;2023-11-22T02:49:41;33.58;;;31.88;;
26062;SDS011;13837;48.562;12.108;2023-11-22T02:52:07;35.17;;;33.38;;
26062;SDS011;13837;48.562;12.108;2023-11-22T02:54:33;33.70;;;32.00;;
26062;SDS011;13837;48.562;12.108;2023-11-22T02:56:59;33.58;;;31.85;;
26062;SDS011;13837;48.562;12.108;2023-11-22T02:59:25;33.13;;;31.42;;
26062;SDS011;13837;48.562;12.108;2023-11-22T03:01:51;33.88;;;32.13;;
26062;SDS011;13837;48.562;12.108;2023-11-22T03:04:17;31.48;;;29.80;;
26062;SDS011;13837;48.562;12.108;2023-11-22T03:06:43;32.90;;;31.20;;
26062;SDS011;13837;48.562;12.108;2023-11-22T03:09:10;32.08;;;30.38;;
26062;SDS011;13837;48.562;12.108;2023-11-22T03:11:38;33.50;;;31.88;;
26062;SDS011;13837;48.562;12.108;2023-11-22T03:14:05;34.20;;;32.42;;
26062;SDS011;13837;48.562;12.108;2023-11-22T03:16:31;32.83;;;31.13;;
26062;SDS011;13837;48.562;12.108;2023-11-22T03:18:58;36.13;;;34.20;;
26062;SDS011;13837;48.562;12.108;2023-11-22T03:21:24;34.10;;;32.20;;
26062;SDS011;13837;48.562;12.108;2023-11-22T03:23:53;33.67;;;31.95;;
26062;SDS011;13837;48.562;12.108;2023-11-22T03:26:20;34.80;;;32.80;;
26062;SDS011;13837;48.562;12.108;2023-11-22T03:28:46;35.95;;;33.85;;
26062;SDS011;13837;48.562;12.108;2023-11-22T03:31:13;35.05;;;33.25;;
26062;SDS011;13837;48.562;12.108;2023-11-22T03:33:40;33.72;;;32.10;;
26062;SDS011;13837;48.562;12.108;2023-11-22T03:36:06;34.35;;;32.45;;
26062;SDS011;13837;48.562;12.108;2023-11-22T03:38:32;34.00;;;32.20;;
26062;SDS011;13837;48.562;12.108;2023-11-22T03:40:58;34.90;;;33.05;;
26062;SDS011;13837;48.562;12.108;2023-11-22T03:43:24;33.92;;;32.25;;
26062;SDS011;13837;48.562;12.108;2023-11-22T03:45:52;36.17;;;34.38;;
26062;SDS011;13837;48.562;12.108;2023-11-22T03:48:18;35.22;;;33.13;;
26062;SDS011;13837;48.562;12.108;2023-11-22T03:50:47;44.57;;;42.47;;
26062;SDS011;13837;48.562;12.108;2023-11-22T03:53:13;34.63;;;32.83;;
26062;SDS011;13837;48.562;12.108;2023-11-22T03:55:39;34.47;;;32.58;;
26062;SDS011;13837;48.562;12.108;2023-11-22T03:58:05;34.22;;;32.40;;
26062;SDS011;13837;48.562;12.108;2023-11-22T04:00:33;35.88;;;34.08;;
26062;SDS011;13837;48.562;12.108;2023-11-22T04:02:59;34.85;;;33.05;;
26062;SDS011;13837;48.562;12.108;2023-11-22T04:05:26;34.58;;;32.78;;
26062;SDS011;13837;48.562;12.108;2023-11-22T04:07:52;34.33;;;32.60;;
26062;SDS011;13837;48.562;12.108;2023-11-22T04:10:19;35.10;;;33.30;;
26062;SDS011;13837;48.562;12.108;2023-11-22T04:12:46;36.75;;;34.72;;
26062;SDS011;13837;48.562;12.108;2023-11-22T04:15:13;35.80;;;34.00;;
26062;SDS011;13837;48.562;12.108;2023-11-22T04:17:39;35.88;;;33.95;;
26062;SDS011;13837;48.562;12.108;2023-11-22T04:20:09;35.13;;;33.30;;
26062;SDS011;13837;48.562;12.108;2023-11-22T04:22:36;34.90;;;33.20;;
26062;SDS011;13837;48.562;12.108;2023-11-22T04:25:02;34.20;;;32.40;;
26062;SDS011;13837;48.562;12.108;2023-11-22T04:27:29;34.25;;;32.47;;
26062;SDS011;13837;48.562;12.108;2023-11-22T04:29:55;33.63;;;31.92;;
26062;SDS011;13837;48.562;12.108;2023-11-22T04:32:21;35.65;;;33.92;;
26062;SDS011;13837;48.562;12.108;2023-11-22T04:34:47;33.90;;;32.20;;
26062;SDS011;13837;48.562;12.108;2023-11-22T04:37:14;34.58;;;32.78;;
26062;SDS011;13837;48.562;12.108;2023-11-22T04:39:40;34.67;;;32.70;;
26062;SDS011;13837;48.562;12.108;2023-11-22T04:42:06;34.08;;;32.35;;
26062;SDS011;13837;48.562;12.108;2023-11-22T04:44:32;33.80;;;32.20;;
26062;SDS011;13837;48.562;12.108;2023-11-22T04:46:58;34.13;;;32.42;;
26062;SDS011;13837;48.562;12.108;2023-11-22T04:49:24;33.72;;;32.08;;
26062;SDS011;13837;48.562;12.108;2023-11-22T04:51:50;33.95;;;32.35;;
26062;SDS011;13837;48.562;12.108;2023-11-22T04:54:16;34.92;;;33.22;;
26062;SDS011;13837;48.562;12.108;2023-11-22T04:56:43;35.60;;;33.80;;
26062;SDS011;13837;48.562;12.108;2023-11-22T04:59:09;35.35;;;33.55;;
26062;SDS011;13837;48.562;12.108;2023-11-22T05:01:35;33.78;;;32.17;;
26062;SDS011;13837;48.562;12.108;2023-11-22T05:04:01;33.95;;;32.45;;
26062;SDS011;13837;48.562;12.108;2023-11-22T05:06:27;34.05;;;32.40;;
26062;SDS011;13837;48.562;12.108;2023-11-22T05:08:54;35.38;;;33.67;;
26062;SDS011;13837;48.562;12.108;2023-11-22T05:11:21;35.08;;;33.28;;
26062;SDS011;13837;48.562;12.108;2023-11-22T05:13:47;34.67;;;33.05;;
26062;SDS011;13837;48.562;12.108;2023-11-22T05:16:15;34.92;;;33.22;;
26062;SDS011;13837;48.562;12.108;2023-11-22T05:18:41;34.60;;;33.00;;
26062;SDS011;13837;48.562;12.108;2023-11-22T05:21:07;34.95;;;33.20;;
26062;SDS011;13837;48.562;12.108;2023-11-22T05:23:33;35.22;;;33.42;;
26062;SDS011;13837;48.562;12.108;2023-11-22T05:26:02;34.90;;;33.20;;
26062;SDS011;13837;48.562;12.108;2023-11-22T05:28:30;34.20;;;32.50;;
26062;SDS011;13837;48.562;12.108;2023-11-22T05:30:56;34.15;;;32.45;;
26062;SDS011;13837;48.562;12.108;2023-11-22T05:33:22;35.22;;;33.33;;
26062;SDS011;13837;48.562;12.108;2023-11-22T05:35:49;33.75;;;32.05;;
26062;SDS011;13837;48.562;12.108;2023-11-22T05:38:15;34.38;;;32.38;;
26062;SDS011;13837;48.562;12.108;2023-11-22T05:40:41;33.00;;;31.50;;
26062;SDS011;13837;48.562;12.108;2023-11-22T05:43:08;33.92;;;32.22;;
26062;SDS011;13837;48.562;12.108;2023-11-22T05:45:35;34.50;;;32.70;;
26062;SDS011;13837;48.562;12.108;2023-11-22T05:48:01;34.58;;;33.00;;
26062;SDS011;13837;48.562;12.108;2023-11-22T05:50:27;33.95;;;32.35;;
26062;SDS011;13837;48.562;12.108;2023-11-22T05:52:53;35.33;;;33.47;;
26062;SDS011;13837;48.562;12.108;2023-11-22T05:55:19;35.58;;;33.83;;
26062;SDS011;13837;48.562;12.108;2023-11-22T05:57:46;37.63;;;35.83;;
26062;SDS011;13837;48.562;12.108;2023-11-22T06:00:12;36.95;;;35.05;;
26062;SDS011;13837;48.562;12.108;2023-11-22T06:02:39;36.80;;;35.00;;
26062;SDS011;13837;48.562;12.108;2023-11-22T06:05:05;37.65;;;35.75;;
26062;SDS011;13837;48.562;12.108;2023-11-22T06:07:31;37.25;;;35.35;;
26062;SDS011;13837;48.562;12.108;2023-11-22T06:09:58;37.70;;;35.80;;
26062;SDS011;13837;48.562;12.108;2023-11-22T06:12:25;37.33;;;35.45;;
26062;SDS011;13837;48.562;12.108;2023-11-22T06:14:51;37.83;;;35.95;;
26062;SDS011;13837;48.562;12.108;2023-11-22T06:17:18;38.10;;;36.10;;
26062;SDS011;13837;48.562;12.108;2023-11-22T06:19:44;39.50;;;37.40;;
26062;SDS011;13837;48.562;12.108;2023-11-22T06:22:10;38.58;;;36.38;;
26062;SDS011;13837;48.562;12.108;2023-11-22T06:24:37;39.95;;;37.75;;
26062;SDS011;13837;48.562;12.108;2023-11-22T06:27:03;37.60;;;35.70;;
26062;SDS011;13837;48.562;12.108;2023-11-22T06:29:29;37.78;;;35.67;;
26062;SDS011;13837;48.562;12.108;2023-11-22T06:31:55;36.38;;;34.58;;
26062;SDS011;13837;48.562;12.108;2023-11-22T06:34:21;37.65;;;35.70;;
26062;SDS011;13837;48.562;12.108;2023-11-22T06:36:47;33.50;;;31.75;;
26062;SDS011;13837;48.562;12.108;2023-11-22T06:39:13;37.83;;;35.83;;
26062;SDS011;13837;48.562;12.108;2023-11-22T06:41:42;36.22;;;34.33;;
26062;SDS011;13837;48.562;12.108;2023-11-22T06:44:08;36.65;;;34.72;;
26062;SDS011;13837;48.562;12.108;2023-11-22T06:46:35;38.65;;;36.45;;
26062;SDS011;13837;48.562;12.108;2023-11-22T06:49:01;35.88;;;33.97;;
26062;SDS011;13837;48.562;12.108;2023-11-22T06:51:27;35.60;;;33.70;;
26062;SDS011;13837;48.562;12.108;2023-11-22T06:53:53;35.90;;;33.90;;
26062;SDS011;13837;48.562;12.108;2023-11-22T06:56:19;38.75;;;36.75;;
26062;SDS011;13837;48.562;12.108;2023-11-22T06:58:45;37.13;;;35.28;;
26062;SDS011;13837;48.562;12.108;2023-11-22T07:01:11;37.22;;;35.20;;
26062;SDS011;13837;48.562;12.108;2023-11-22T07:03:38;39.30;;;37.10;;
26062;SDS011;13837;48.562;12.108;2023-11-22T07:06:05;40.60;;;38.42;;
26062;SDS011;13837;48.562;12.108;2023-11-22T07:08:32;40.63;;;38.53;;
26062;SDS011;13837;48.562;12.108;2023-11-22T07:10:59;38.35;;;36.28;;
26062;SDS011;13837;48.562;12.108;2023-11-22T07:13:25;37.72;;;35.78;;
26062;SDS011;13837;48.562;12.108;2023-11-22T07:15:52;38.15;;;36.22;;
26062;SDS011;13837;48.562;12.108;2023-11-22T07:18:19;38.40;;;36.40;;
26062;SDS011;13837;48.562;12.108;2023-11-22T07:20:49;36.92;;;34.95;;
26062;SDS011;13837;48.562;12.108;2023-11-22T07:23:15;36.60;;;34.67;;
26062;SDS011;13837;48.562;12.108;2023-11-22T07:25:41;37.70;;;35.90;;
26062;SDS011;13837;48.562;12.108;2023-11-22T07:28:07;38.53;;;36.63;;
26062;SDS011;13837;48.562;12.108;2023-11-22T07:30:33;39.53;;;37.42;;
26062;SDS011;13837;48.562;12.108;2023-11-22T07:33:00;37.95;;;35.97;;
26062;SDS011;13837;48.562;12.108;2023-11-22T07:35:27;36.70;;;34.80;;
26062;SDS011;13837;48.562;12.108;2023-11-22T07:37:53;40.38;;;38.38;;
26062;SDS011;13837;48.562;12.108;2023-11-22T07:40:19;40.60;;;38.50;;
26062;SDS011;13837;48.562;12.108;2023-11-22T07:42:47;38.45;;;36.25;;
26062;SDS011;13837;48.562;12.108;2023-11-22T07:45:14;39.63;;;37.50;;
26062;SDS011;13837;48.562;12.108;2023-11-22T07:47:41;37.83;;;35.92;;
26062;SDS011;13837;48.562;12.108;2023-11-22T07:50:08;38.58;;;36.75;;
26062;SDS011;13837;48.562;12.108;2023-11-22T07:52:36;39.97;;;37.88;;
26062;SDS011;13837;48.562;12.108;2023-11-22T07:55:03;38.88;;;36.88;;
26062;SDS011;13837;48.562;12.108;2023-11-22T07:57:33;41.03;;;39.03;;
26062;SDS011;13837;48.562;12.108;2023-11-22T08:00:00;41.33;;;39.22;;
26062;SDS011;13837;48.562;12.108;2023-11-22T08:02:26;40.28;;;38.33;;
26062;SDS011;13837;48.562;12.108;2023-11-22T08:04:53;40.70;;;38.80;;
26062;SDS011;13837;48.562;12.108;2023-11-22T08:07:20;40.80;;;38.70;;
26062;SDS011;13837;48.562;12.108;2023-11-22T08:09:48;38.00;;;35.90;;
26062;SDS011;13837;48.562;12.108;2023-11-22T08:12:15;40.55;;;38.45;;
26062;SDS011;13837;48.562;12.108;2023-11-22T08:14:41;40.63;;;38.53;;
26062;SDS011;13837;48.562;12.108;2023-11-22T08:17:09;41.72;;;39.63;;
26062;SDS011;13837;48.562;12.108;2023-11-22T08:19:37;39.75;;;37.85;;
26062;SDS011;13837;48.562;12.108;2023-11-22T08:22:05;40.80;;;38.70;;
26062;SDS011;13837;48.562;12.108;2023-11-22T08:24:31;40.90;;;38.80;;
26062;SDS011;13837;48.562;12.108;2023-11-22T08:26:57;40.15;;;38.25;;
26062;SDS011;13837;48.562;12.108;2023-11-22T08:29:26;38.40;;;36.38;;
26062;SDS011;13837;48.562;12.108;2023-11-22T08:31:52;37.70;;;35.90;;
26062;SDS011;13837;48.562;12.108;2023-11-22T08:34:18;34.60;;;32.80;;
26062;SDS011;13837;48.562;12.108;2023-11-22T08:36:44;34.72;;;32.92;;
26062;SDS011;13837;48.562;12.108;2023-11-22T08:39:10;36.20;;;34.30;;
26062;SDS011;13837;48.562;12.108;2023-11-22T08:41:36;37.95;;;36.05;;
26062;SDS011;13837;48.562;12.108;2023-11-22T08:44:03;35.60;;;33.70;;
26062;SDS011;13837;48.562;12.108;2023-11-22T08:46:29;39.72;;;37.72;;
26062;SDS011;13837;48.562;12.108;2023-11-22T08:48:55;39.90;;;37.80;;
26062;SDS011;13837;48.562;12.108;2023-11-22T08:51:21;38.92;;;36.92;;
26062;SDS011;13837;48.562;12.108;2023-11-22T08:53:47;38.30;;;36.40;;
26062;SDS011;13837;48.562;12.108;2023-11-22T08:56:14;38.25;;;36.35;;
26062;SDS011;13837;48.562;12.108;2023-11-22T08:58:40;39.78;;;37.78;;
26062;SDS011;13837;48.562;12.108;2023-11-22T09:01:08;39.45;;;37.45;;
26062;SDS011;13837;48.562;12.108;2023-11-22T09:03:38;38.92;;;37.00;;
26062;SDS011;13837;48.562;12.108;2023-11-22T09:06:05;37.80;;;36.00;;
26062;SDS011;13837;48.562;12.108;2023-11-22T09:08:32;38.47;;;36.47;;
26062;SDS011;13837;48.562;12.108;2023-11-22T09:10:58;37.92;;;36.03;;
26062;SDS011;13837;48.562;12.108;2023-11-22T09:13:24;39.65;;;37.72;;
26062;SDS011;13837;48.562;12.108;2023-11-22T09:15:50;39.30;;;37.30;;
26062;SDS011;13837;48.562;12.108;2023-11-22T09:18:16;39.30;;;37.25;;
26062;SDS011;13837;48.562;12.108;2023-11-22T09:20:42;39.22;;;37.22;;
26062;SDS011;13837;48.562;12.108;2023-11-22T09:23:12;39.97;;;37.95;;
26062;SDS011;13837;48.562;12.108;2023-11-22T09:25:39;38.60;;;36.65;;
26062;SDS011;13837;48.562;12.108;2023-11-22T09:28:05;38.10;;;36.10;;
26062;SDS011;13837;48.562;12.108;2023-11-22T09:30:34;36.75;;;34.85;;
26062;SDS011;13837;48.562;12.108;2023-11-22T09:33:14;36.95;;;35.05;;
26062;SDS011;13837;48.562;12.108;2023-11-22T09:35:41;38.42;;;36.42;;
26062;SDS011;13837;48.562;12.108;2023-11-22T09:38:09;36.67;;;34.88;;
26062;SDS011;13837;48.562;12.108;2023-11-22T09:40:46;38.45;;;36.45;;
26062;SDS011;13837;48.562;12.108;2023-11-22T09:43:13;38.75;;;36.78;;
26062;SDS011;13837;48.562;12.108;2023-11-22T09:45:45;39.58;;;37.58;;
26062;SDS011;13837;48.562;12.108;2023-11-22T09:48:19;38.38;;;36.47;;
26062;SDS011;13837;48.562;12.108;2023-11-22T09:53:24;38.53;;;36.45;;
26062;SDS011;13837;48.562;12.108;2023-11-22T09:55:51;37.60;;;35.60;;
26062;SDS011;13837;48.562;12.108;2023-11-22T09:58:18;36.95;;;34.95;;
26062;SDS011;13837;48.562;12.108;2023-11-22T10:00:46;32.60;;;30.70;;
26062;SDS011;13837;48.562;12.108;2023-11-22T10:03:13;34.35;;;32.47;;
26062;SDS011;13837;48.562;12.108;2023-11-22T10:05:43;35.88;;;33.88;;
26062;SDS011;13837;48.562;12.108;2023-11-22T10:08:10;40.70;;;38.60;;
26062;SDS011;13837;48.562;12.108;2023-11-22T10:10:37;40.20;;;37.80;;
26062;SDS011;13837;48.562;12.108;2023-11-22T10:13:03;38.58;;;36.30;;
26062;SDS011;13837;48.562;12.108;2023-11-22T10:15:29;38.63;;;36.42;;
26062;SDS011;13837;48.562;12.108;2023-11-22T10:17:57;38.45;;;36.40;;
26062;SDS011;13837;48.562;12.108;2023-11-22T10:22:51;37.97;;;36.08;;
26062;SDS011;13837;48.562;12.108;2023-11-22T10:25:17;37.58;;;35.67;;
26062;SDS011;13837;48.562;12.108;2023-11-22T10:27:46;40.35;;;38.17;;
26062;SDS011;13837;48.562;12.108;2023-11-22T10:30:13;39.38;;;37.28;;
26062;SDS011;13837;48.562;12.108;2023-11-22T10:35:08;39.75;;;37.75;;
26062;SDS011;13837;48.562;12.108;2023-11-22T10:37:35;37.83;;;35.83;;
26062;SDS011;13837;48.562;12.108;2023-11-22T10:40:01;38.72;;;36.58;;
26062;SDS011;13837;48.562;12.108;2023-11-22T10:42:30;39.90;;;37.50;;
26062;SDS011;13837;48.562;12.108;2023-11-22T10:44:56;39.75;;;37.55;;
26062;SDS011;13837;48.562;12.108;2023-11-22T10:47:23;35.95;;;34.10;;
26062;SDS011;13837;48.562;12.108;2023-11-22T10:49:50;35.75;;;33.83;;
26062;SDS011;13837;48.562;12.108;2023-11-22T10:52:16;37.72;;;35.63;;
26062;SDS011;13837;48.562;12.108;2023-11-22T10:54:44;33.83;;;31.80;;
26062;SDS011;13837;48.562;12.108;2023-11-22T10:57:10;36.25;;;34.25;;
26062;SDS011;13837;48.562;12.108;2023-11-22T10:59:37;37.13;;;35.13;;
26062;SDS011;13837;48.562;12.108;2023-11-22T11:02:09;38.40;;;36.20;;
26062;SDS011;13837;48.562;12.108;2023-11-22T11:04:39;39.38;;;37.33;;
26062;SDS011;13837;48.562;12.108;2023-11-22T11:07:07;40.05;;;37.75;;
26062;SDS011;13837;48.562;12.108;2023-11-22T11:09:35;38.15;;;36.00;;
26062;SDS011;13837;48.562;12.108;2023-11-22T11:12:02;38.70;;;36.53;;
26062;SDS011;13837;48.562;12.108;2023-11-22T11:14:28;38.53;;;36.53;;
26062;SDS011;13837;48.562;12.108;2023-11-22T11:16:54;38.65;;;36.35;;
26062;SDS011;13837;48.562;12.108;2023-11-22T11:19:23;38.95;;;36.85;;
26062;SDS011;13837;48.562;12.108;2023-11-22T11:21:50;37.75;;;35.60;;
26062;SDS011;13837;48.562;12.108;2023-11-22T11:24:16;37.38;;;35.30;;
26062;SDS011;13837;48.562;12.108;2023-11-22T11:26:49;37.95;;;35.65;;
26062;SDS011;13837;48.562;12.108;2023-11-22T11:31:56;26.90;;;24.77;;
26062;SDS011;13837;48.562;12.108;2023-11-22T11:34:23;39.85;;;37.55;;
26062;SDS011;13837;48.562;12.108;2023-11-22T11:36:52;40.38;;;38.10;;
26062;SDS011;13837;48.562;12.108;2023-11-22T11:39:25;41.22;;;38.83;;
26062;SDS011;13837;48.562;12.108;2023-11-22T11:42:07;39.95;;;37.65;;
26062;SDS011;13837;48.562;12.108;2023-11-22T11:44:33;41.75;;;39.35;;
26062;SDS011;13837;48.562;12.108;2023-11-22T11:46:59;39.58;;;37.33;;
26062;SDS011;13837;48.562;12.108;2023-11-22T11:49:34;27.23;;;25.20;;
26062;SDS011;13837;48.562;12.108;2023-11-22T11:52:03;35.53;;;33.22;;
26062;SDS011;13837;48.562;12.108;2023-11-22T11:54:29;32.67;;;30.63;;
26062;SDS011;13837;48.562;12.108;2023-11-22T11:57:02;28.83;;;26.75;;
26062;SDS011;13837;48.562;12.108;2023-11-22T11:59:28;40.00;;;37.45;;
26062;SDS011;13837;48.562;12.108;2023-11-22T12:01:55;44.35;;;41.33;;
26062;SDS011;13837;48.562;12.108;2023-11-22T12:04:23;41.40;;;38.42;;
26062;SDS011;13837;48.562;12.108;2023-11-22T12:06:49;41.13;;;38.63;;
26062;SDS011;13837;48.562;12.108;2023-11-22T12:09:23;28.67;;;26.55;;
26062;SDS011;13837;48.562;12.108;2023-11-22T12:11:50;41.35;;;38.45;;
26062;SDS011;13837;48.562;12.108;2023-11-22T12:14:18;29.20;;;26.90;;
26062;SDS011;13837;48.562;12.108;2023-11-22T12:16:44;44.63;;;41.53;;
26062;SDS011;13837;48.562;12.108;2023-11-22T12:19:23;39.33;;;36.65;;
26062;SDS011;13837;48.562;12.108;2023-11-22T12:21:50;24.80;;;22.77;;
26062;SDS011;13837;48.562;12.108;2023-11-22T12:24:16;41.28;;;38.40;;
26062;SDS011;13837;48.562;12.108;2023-11-22T12:26:46;44.40;;;41.20;;
26062;SDS011;13837;48.562;12.108;2023-11-22T12:29:14;44.63;;;41.60;;
26062;SDS011;13837;48.562;12.108;2023-11-22T12:31:52;44.58;;;41.60;;
26062;SDS011;13837;48.562;12.108;2023-11-22T12:34:20;46.05;;;43.28;;
26062;SDS011;13837;48.562;12.108;2023-11-22T12:36:47;48.28;;;44.95;;
26062;SDS011;13837;48.562;12.108;2023-11-22T12:39:14;47.15;;;43.95;;
26062;SDS011;13837;48.562;12.108;2023-11-22T12:44:10;46.60;;;43.47;;
26062;SDS011;13837;48.562;12.108;2023-11-22T12:46:49;45.85;;;42.88;;
26062;SDS011;13837;48.562;12.108;2023-11-22T12:49:29;44.80;;;42.00;;
26062;SDS011;13837;48.562;12.108;2023-11-22T12:51:56;43.88;;;41.30;;
26062;SDS011;13837;48.562;12.108;2023-11-22T12:54:23;44.17;;;41.47;;
26062;SDS011;13837;48.562;12.108;2023-11-22T12:56:49;46.00;;;43.13;;
26062;SDS011;13837;48.562;12.108;2023-11-22T12:59:15;52.70;;;48.08;;
26062;SDS011;13837;48.562;12.108;2023-11-22T13:01:43;46.40;;;43.05;;
26062;SDS011;13837;48.562;12.108;2023-11-22T13:04:09;43.78;;;40.97;;
26062;SDS011;13837;48.562;12.108;2023-11-22T13:06:35;44.67;;;41.85;;
26062;SDS011;13837;48.562;12.108;2023-11-22T13:09:02;44.92;;;42.20;;
26062;SDS011;13837;48.562;12.108;2023-11-22T13:11:28;47.17;;;44.10;;
26062;SDS011;13837;48.562;12.108;2023-11-22T13:13:54;46.53;;;43.53;;
26062;SDS011;13837;48.562;12.108;2023-11-22T13:16:21;48.00;;;44.88;;
26062;SDS011;13837;48.562;12.108;2023-11-22T13:18:47;46.28;;;43.50;;
26062;SDS011;13837;48.562;12.108;2023-11-22T13:21:14;44.72;;;42.10;;
26062;SDS011;13837;48.562;12.108;2023-11-22T13:23:40;45.28;;;42.38;;
26062;SDS011;13837;48.562;12.108;2023-11-22T13:26:06;45.60;;;42.75;;
26062;SDS011;13837;48.562;12.108;2023-11-22T13:28:38;45.33;;;42.55;;
26062;SDS011;13837;48.562;12.108;2023-11-22T13:31:06;42.67;;;39.92;;
26062;SDS011;13837;48.562;12.108;2023-11-22T13:33:33;39.35;;;36.85;;
26062;SDS011;13837;48.562;12.108;2023-11-22T13:35:59;41.38;;;38.63;;
26062;SDS011;13837;48.562;12.108;2023-11-22T13:38:25;42.05;;;39.25;;
26062;SDS011;13837;48.562;12.108;2023-11-22T13:40:51;44.53;;;41.40;;
26062;SDS011;13837;48.562;12.108;2023-11-22T13:43:17;41.83;;;39.22;;
26062;SDS011;13837;48.562;12.108;2023-11-22T13:45:45;45.42;;;42.33;;
26062;SDS011;13837;48.562;12.108;2023-11-22T13:48:11;43.05;;;40.08;;
26062;SDS011;13837;48.562;12.108;2023-11-22T13:50:37;40.05;;;37.65;;
26062;SDS011;13837;48.562;12.108;2023-11-22T13:53:03;41.72;;;39.10;;
26062;SDS011;13837;48.562;12.108;2023-11-22T13:55:30;41.97;;;39.63;;
26062;SDS011;13837;48.562;12.108;2023-11-22T13:57:57;42.17;;;39.72;;
26062;SDS011;13837;48.562;12.108;2023-11-22T14:00:25;40.85;;;38.28;;
26062;SDS011;13837;48.562;12.108;2023-11-22T14:02:54;40.33;;;37.92;;
26062;SDS011;13837;48.562;12.108;2023-11-22T14:05:29;41.25;;;38.78;;
26062;SDS011;13837;48.562;12.108;2023-11-22T14:07:55;41.60;;;39.17;;
26062;SDS011;13837;48.562;12.108;2023-11-22T14:10:22;39.60;;;37.25;;
26062;SDS011;13837;48.562;12.108;2023-11-22T14:12:48;40.10;;;37.85;;
26062;SDS011;13837;48.562;12.108;2023-11-22T14:15:14;39.35;;;37.03;;
26062;SDS011;13837;48.562;12.108;2023-11-22T14:17:41;38.75;;;36.30;;
26062;SDS011;13837;48.562;12.108;2023-11-22T14:20:10;41.60;;;39.15;;
26062;SDS011;13837;48.562;12.108;2023-11-22T14:22:37;40.78;;;38.42;;
26062;SDS011;13837;48.562;12.108;2023-11-22T14:25:04;41.38;;;38.90;;